Weather at Ardmore Downtown Executive Airport

Public forecast

Using degrees Fahrenheit for public forecast. Weather courtesy of forecast.io.

Current aviation weather report (METAR) for Ardmore Downtown Executive Airport

Retrieved UTC (0 seconds ago):

Closest aviation forecast (TAF) to Ardmore Downtown Executive Airport

Closest forecast is University of Oklahoma Westheimer Airport, 68.2 nm (126.3 km) NNW. Retrieved 2021-08-04 00:22 UTC (5 hours ago):

TAF KOUN 032320Z 0400/0424 07006KT P6SM FEW050 TEMPO 0411/0415 4SM HZ FM041500 14006KT P6SM FEW050